createdAt,value
2017-10-17T00:00:31.578Z,0
2017-10-17T00:01:41.970Z,0
2017-10-17T00:02:52.092Z,0
2017-10-17T00:04:03.508Z,0
2017-10-17T00:05:13.922Z,0
2017-10-17T00:06:24.317Z,0
2017-10-17T00:07:34.713Z,0
2017-10-17T00:08:44.818Z,0
2017-10-17T00:09:54.554Z,0
2017-10-17T00:11:04.969Z,0
2017-10-17T00:12:16.417Z,0
2017-10-17T00:13:26.819Z,0
2017-10-17T00:14:37.276Z,0
2017-10-17T00:15:47.364Z,0
2017-10-17T00:16:57.788Z,0
2017-10-17T00:18:07.850Z,0
2017-10-17T00:19:18.242Z,0
2017-10-17T00:20:27.969Z,0
2017-10-17T00:21:38.369Z,0
2017-10-17T00:22:48.759Z,0
2017-10-17T00:23:59.165Z,0
2017-10-17T00:25:09.266Z,0
2017-10-17T00:26:19.672Z,0
2017-10-17T00:27:30.070Z,0
2017-10-17T00:28:40.151Z,0
2017-10-17T00:29:50.572Z,0
2017-10-17T00:31:00.630Z,0
2017-10-17T00:32:10.417Z,0
2017-10-17T00:33:20.818Z,0
2017-10-17T00:34:31.213Z,0
2017-10-17T00:35:41.612Z,0
2017-10-17T00:36:52.004Z,0
2017-10-17T00:38:02.448Z,0
2017-10-17T00:39:13.153Z,0
2017-10-17T00:40:23.234Z,0
2017-10-17T00:41:33.308Z,0
2017-10-17T00:42:43.383Z,0
2017-10-17T00:43:53.831Z,0
2017-10-17T00:45:04.240Z,0
2017-10-17T00:46:14.305Z,0
2017-10-17T00:47:24.719Z,0
2017-10-17T00:48:35.117Z,0
2017-10-17T00:49:45.552Z,0
2017-10-17T00:50:55.298Z,0
2017-10-17T00:52:05.746Z,0
2017-10-17T00:53:15.499Z,0
2017-10-17T00:54:25.909Z,0
2017-10-17T00:55:36.312Z,0
2017-10-17T00:56:46.374Z,0
2017-10-17T00:57:56.773Z,0
2017-10-17T00:59:07.177Z,0
2017-10-17T01:00:17.575Z,0
2017-10-17T01:01:27.971Z,0
2017-10-17T01:02:38.041Z,0
2017-10-17T01:03:47.776Z,0
2017-10-17T01:04:58.181Z,0
2017-10-17T01:06:07.941Z,0
2017-10-17T01:07:18.386Z,0
2017-10-17T01:08:28.467Z,0
2017-10-17T01:09:38.869Z,0
2017-10-17T01:10:49.275Z,0
2017-10-17T01:11:59.699Z,0
2017-10-17T01:13:09.820Z,0
2017-10-17T01:14:20.207Z,0
2017-10-17T01:15:30.629Z,0
2017-10-17T01:16:41.025Z,0
2017-10-17T01:17:51.114Z,0
2017-10-17T01:19:01.257Z,0
2017-10-17T01:20:11.655Z,0
2017-10-17T01:21:21.761Z,0
2017-10-17T01:22:31.827Z,0
2017-10-17T01:23:41.905Z,0
2017-10-17T01:24:51.961Z,0
2017-10-17T01:26:02.033Z,0
2017-10-17T01:27:12.420Z,0
2017-10-17T01:28:22.492Z,0
2017-10-17T01:29:32.887Z,0
2017-10-17T01:30:43.281Z,0
2017-10-17T01:31:53.015Z,0
2017-10-17T01:33:03.093Z,0
2017-10-17T01:34:13.177Z,0
2017-10-17T01:35:23.572Z,0
2017-10-17T01:36:34.038Z,0
2017-10-17T01:37:44.450Z,0
2017-10-17T01:38:54.856Z,0
2017-10-17T01:40:05.240Z,0
2017-10-17T01:41:15.641Z,0
2017-10-17T01:42:25.705Z,0
2017-10-17T01:43:35.781Z,0
2017-10-17T01:44:45.873Z,0
2017-10-17T01:45:56.272Z,0
2017-10-17T01:47:06.676Z,0
2017-10-17T01:48:17.171Z,0
2017-10-17T01:49:27.557Z,0
2017-10-17T01:50:37.631Z,0
2017-10-17T01:51:48.032Z,0
2017-10-17T01:52:58.434Z,0
2017-10-17T01:54:08.518Z,0
2017-10-17T01:55:18.931Z,0
2017-10-17T01:56:29.024Z,0
2017-10-17T01:57:39.422Z,0
2017-10-17T01:58:49.821Z,0
2017-10-17T02:00:00.269Z,0
2017-10-17T02:01:10.676Z,0
2017-10-17T02:02:20.732Z,0
2017-10-17T02:03:30.801Z,0
2017-10-17T02:04:41.210Z,0
2017-10-17T02:05:51.652Z,0
2017-10-17T02:07:02.049Z,0
2017-10-17T02:08:12.135Z,0
2017-10-17T02:09:22.208Z,0
2017-10-17T02:10:32.600Z,0
2017-10-17T02:11:42.712Z,0
2017-10-17T02:12:53.097Z,0
2017-10-17T02:14:03.490Z,0
2017-10-17T02:15:13.895Z,0
2017-10-17T02:16:24.289Z,0
2017-10-17T02:17:34.747Z,0
2017-10-17T02:18:45.157Z,0
2017-10-17T02:19:55.565Z,0
2017-10-17T02:21:05.996Z,0
2017-10-17T02:22:16.063Z,0
2017-10-17T02:23:25.806Z,0
2017-10-17T02:24:35.863Z,0
2017-10-17T02:25:46.261Z,0
2017-10-17T02:26:56.652Z,0
2017-10-17T02:28:07.037Z,0
2017-10-17T02:29:17.160Z,0
2017-10-17T02:30:27.581Z,0
2017-10-17T02:31:37.665Z,0
2017-10-17T02:32:48.061Z,0
2017-10-17T02:33:58.464Z,0
2017-10-17T02:35:08.245Z,0
2017-10-17T02:36:18.646Z,0
2017-10-17T02:37:29.046Z,0
2017-10-17T02:38:39.462Z,0
2017-10-17T02:39:49.535Z,0
2017-10-17T02:40:59.666Z,0
2017-10-17T02:42:10.069Z,0
2017-10-17T02:43:20.484Z,0
2017-10-17T02:44:30.567Z,0
2017-10-17T02:45:40.968Z,0
2017-10-17T02:46:51.034Z,0
2017-10-17T02:48:01.474Z,0
2017-10-17T02:49:11.551Z,0
2017-10-17T02:50:21.965Z,0
2017-10-17T02:51:32.365Z,0
2017-10-17T02:52:42.482Z,0
2017-10-17T02:53:52.870Z,0
2017-10-17T02:55:02.936Z,0
2017-10-17T02:56:13.367Z,0
2017-10-17T02:57:23.116Z,0
2017-10-17T02:58:33.512Z,0
2017-10-17T02:59:43.929Z,0
2017-10-17T03:00:54.317Z,0
2017-10-17T03:02:04.739Z,0
2017-10-17T03:34:05.216Z,0
2017-10-17T03:35:15.618Z,0
2017-10-17T03:36:26.055Z,0
2017-10-17T03:37:36.444Z,0
2017-10-17T03:38:46.845Z,0
2017-10-17T03:39:57.289Z,0
2017-10-17T03:41:07.353Z,0
2017-10-17T03:42:17.758Z,0
2017-10-17T03:43:28.144Z,0
2017-10-17T03:44:38.212Z,0
2017-10-17T03:45:48.684Z,0
2017-10-17T03:46:59.110Z,0
2017-10-17T03:48:09.556Z,0
2017-10-17T03:49:19.955Z,0
2017-10-17T03:50:30.352Z,0
2017-10-17T03:51:40.403Z,0
2017-10-17T03:52:50.794Z,0
2017-10-17T03:54:01.196Z,0
2017-10-17T03:55:11.282Z,0
2017-10-17T03:56:21.670Z,0
2017-10-17T03:57:32.091Z,0
2017-10-17T03:58:42.154Z,0
2017-10-17T03:59:52.556Z,0
2017-10-17T04:01:02.936Z,0
2017-10-17T04:02:13.338Z,0
2017-10-17T04:03:23.793Z,0
2017-10-17T04:04:33.855Z,0
2017-10-17T04:05:43.930Z,0
2017-10-17T04:06:54.331Z,0
2017-10-17T04:08:04.731Z,0
2017-10-17T04:09:15.194Z,0
2017-10-17T04:10:25.622Z,0
2017-10-17T04:11:35.699Z,0
2017-10-17T04:12:45.784Z,0
2017-10-17T04:13:55.860Z,0
2017-10-17T04:15:06.307Z,0
2017-10-17T04:16:16.037Z,0
2017-10-17T04:17:26.459Z,0
2017-10-17T04:18:36.859Z,0
2017-10-17T04:19:47.264Z,0
2017-10-17T04:20:57.680Z,0
2017-10-17T04:22:07.749Z,0
2017-10-17T04:23:18.149Z,0
2017-10-17T04:24:27.878Z,0
2017-10-17T04:25:38.276Z,0
2017-10-17T04:26:48.688Z,0
2017-10-17T04:27:59.069Z,0
2017-10-17T04:29:08.810Z,0
2017-10-17T04:30:18.541Z,0
2017-10-17T04:31:28.637Z,0
2017-10-17T04:32:38.750Z,0
2017-10-17T04:33:49.169Z,0
2017-10-17T04:34:59.579Z,0
2017-10-17T04:36:09.979Z,0
2017-10-17T04:37:20.391Z,0
2017-10-17T04:38:30.503Z,0
2017-10-17T04:39:40.905Z,0
2017-10-17T04:40:51.320Z,0
2017-10-17T04:42:01.059Z,0
2017-10-17T04:43:11.119Z,0
2017-10-17T04:44:21.237Z,0
2017-10-17T04:45:31.640Z,0
2017-10-17T04:46:41.682Z,0
2017-10-17T04:47:52.070Z,0
2017-10-17T04:49:02.132Z,0
2017-10-17T04:50:12.546Z,0
2017-10-17T04:51:22.952Z,0
2017-10-17T04:52:33.349Z,0
2017-10-17T04:53:43.735Z,0
2017-10-17T04:54:53.808Z,0
2017-10-17T04:56:04.270Z,0
2017-10-17T04:57:14.331Z,0
2017-10-17T04:58:24.717Z,0
2017-10-17T04:59:34.789Z,0
2017-10-17T05:00:45.217Z,0
2017-10-17T05:01:55.353Z,0
2017-10-17T05:03:05.740Z,0
2017-10-17T05:04:16.144Z,0
2017-10-17T05:05:26.210Z,0
2017-10-17T05:06:36.278Z,0
2017-10-17T05:07:46.683Z,0
2017-10-17T05:08:56.779Z,0
2017-10-17T05:10:07.197Z,0
2017-10-17T05:11:17.597Z,0
2017-10-17T05:12:28.014Z,0
2017-10-17T05:13:38.415Z,0
2017-10-17T05:14:48.823Z,0
2017-10-17T05:15:59.232Z,0
2017-10-17T05:17:09.321Z,0
2017-10-17T05:18:19.722Z,0
2017-10-17T05:19:30.131Z,0
2017-10-17T05:20:40.530Z,0
2017-10-17T05:21:50.960Z,5
2017-10-17T05:23:01.029Z,5
2017-10-17T05:24:11.439Z,5
2017-10-17T05:25:21.570Z,5
2017-10-17T05:26:31.976Z,5
2017-10-17T05:27:42.038Z,5
2017-10-17T05:28:52.105Z,5
2017-10-17T05:30:02.515Z,5
2017-10-17T05:31:12.968Z,5
2017-10-17T05:32:23.345Z,10
2017-10-17T05:33:33.402Z,10
2017-10-17T05:34:43.817Z,10
2017-10-17T05:35:54.205Z,10
2017-10-17T05:37:04.632Z,10
2017-10-17T05:38:15.001Z,10
2017-10-17T05:39:25.700Z,15
2017-10-17T05:40:36.086Z,15
2017-10-17T05:41:46.467Z,15
2017-10-17T05:42:56.542Z,15
2017-10-17T05:44:06.924Z,15
2017-10-17T05:45:17.344Z,15
2017-10-17T05:46:27.744Z,20
2017-10-17T05:47:37.823Z,20
2017-10-17T05:48:48.244Z,20
2017-10-17T05:49:58.320Z,20
2017-10-17T05:51:08.401Z,20
2017-10-17T05:52:19.897Z,25
2017-10-17T05:53:30.016Z,25
2017-10-17T05:54:40.095Z,25
2017-10-17T05:55:50.218Z,30
2017-10-17T05:57:00.260Z,30
2017-10-17T05:58:10.323Z,30
2017-10-17T05:59:20.761Z,30
2017-10-17T06:00:31.214Z,30
2017-10-17T06:01:41.624Z,35
2017-10-17T06:02:51.686Z,35
2017-10-17T06:04:01.773Z,35
2017-10-17T06:05:11.836Z,35
2017-10-17T06:06:21.925Z,40
2017-10-17T06:07:32.343Z,40
2017-10-17T06:08:42.734Z,40
2017-10-17T06:09:52.468Z,40
2017-10-17T06:11:02.871Z,40
2017-10-17T06:12:13.270Z,40
2017-10-17T06:13:23.866Z,40
2017-10-17T06:14:34.266Z,45
2017-10-17T06:15:44.330Z,45
2017-10-17T06:16:54.725Z,45
2017-10-17T06:18:05.130Z,45
2017-10-17T06:19:15.209Z,50
2017-10-17T06:20:25.294Z,50
2017-10-17T06:21:35.384Z,50
2017-10-17T06:22:45.458Z,55
2017-10-17T06:23:55.581Z,50
2017-10-17T06:25:06.004Z,55
2017-10-17T06:26:16.435Z,55
2017-10-17T06:27:26.838Z,55
2017-10-17T06:28:37.253Z,55
2017-10-17T06:29:47.649Z,55
2017-10-17T06:30:58.048Z,60
2017-10-17T06:32:08.462Z,60
2017-10-17T06:33:18.861Z,65
2017-10-17T06:34:29.248Z,65
2017-10-17T06:35:39.644Z,65
2017-10-17T06:36:49.706Z,65
2017-10-17T06:38:00.110Z,65
2017-10-17T06:39:10.545Z,65
2017-10-17T06:40:20.290Z,65
2017-10-17T06:41:30.418Z,65
2017-10-17T06:42:40.825Z,70
2017-10-17T06:43:51.229Z,70
2017-10-17T06:45:01.300Z,70
2017-10-17T06:46:11.706Z,70
2017-10-17T06:47:21.843Z,70
2017-10-17T06:48:32.235Z,75
2017-10-17T06:49:42.662Z,70
2017-10-17T06:50:52.749Z,75
2017-10-17T06:52:03.164Z,75
2017-10-17T06:53:13.563Z,75
2017-10-17T06:54:23.633Z,80
2017-10-17T06:55:33.692Z,80
2017-10-17T06:56:43.773Z,85
2017-10-17T06:57:54.209Z,85
2017-10-17T06:59:03.995Z,80
2017-10-17T07:00:14.082Z,80
2017-10-17T07:01:24.520Z,80
2017-10-17T07:02:34.924Z,80
2017-10-17T07:03:45.337Z,80
2017-10-17T07:04:55.734Z,80
2017-10-17T07:06:05.818Z,85
2017-10-17T07:07:16.240Z,85
2017-10-17T07:08:26.631Z,85
2017-10-17T07:09:36.708Z,90
2017-10-17T07:10:47.155Z,90
2017-10-17T07:11:57.570Z,90
2017-10-17T07:13:07.982Z,90
2017-10-17T07:14:18.376Z,95
2017-10-17T07:15:28.772Z,100
2017-10-17T07:16:39.171Z,100
2017-10-17T07:17:49.579Z,100
2017-10-17T07:19:00.020Z,100
2017-10-17T07:20:10.426Z,100
2017-10-17T07:21:20.512Z,100
2017-10-17T07:22:30.922Z,95
2017-10-17T07:23:41.352Z,100
2017-10-17T07:24:51.789Z,100
2017-10-17T07:26:02.221Z,100
2017-10-17T07:27:12.631Z,105
2017-10-17T07:28:23.119Z,105
2017-10-17T07:29:33.536Z,105
2017-10-17T07:30:43.291Z,110
2017-10-17T07:31:53.680Z,110
2017-10-17T07:33:03.739Z,110
2017-10-17T07:34:13.829Z,110
2017-10-17T07:35:23.896Z,110
2017-10-17T07:36:34.294Z,110
2017-10-17T07:37:44.699Z,110
2017-10-17T07:38:55.117Z,110
2017-10-17T07:40:04.863Z,110
2017-10-17T07:41:14.936Z,110
2017-10-17T07:42:24.670Z,110
2017-10-17T07:43:34.733Z,110
2017-10-17T07:44:45.149Z,110
2017-10-17T07:45:54.961Z,110
2017-10-17T07:47:05.377Z,110
2017-10-17T07:48:15.138Z,115
2017-10-17T07:49:25.546Z,120
2017-10-17T07:50:35.952Z,120
2017-10-17T07:51:46.400Z,120
2017-10-17T07:52:56.795Z,125
2017-10-17T07:54:07.192Z,125
2017-10-17T07:55:17.269Z,130
2017-10-17T07:56:27.690Z,130
2017-10-17T07:57:38.143Z,130
2017-10-17T07:58:48.555Z,125
2017-10-17T07:59:58.637Z,125
2017-10-17T08:01:09.044Z,130
2017-10-17T08:02:19.425Z,135
2017-10-17T08:03:29.898Z,140
2017-10-17T08:04:39.975Z,140
2017-10-17T08:05:50.062Z,135
2017-10-17T08:07:00.446Z,135
2017-10-17T08:08:10.859Z,135
2017-10-17T08:09:21.322Z,135
2017-10-17T08:10:31.722Z,135
2017-10-17T08:11:41.810Z,135
2017-10-17T08:12:52.227Z,140
2017-10-17T08:14:02.629Z,140
2017-10-17T08:15:13.119Z,140
2017-10-17T08:16:23.540Z,140
2017-10-17T08:17:33.614Z,140
2017-10-17T08:18:44.027Z,145
2017-10-17T08:19:54.436Z,145
2017-10-17T08:21:04.863Z,150
2017-10-17T08:22:14.953Z,150
2017-10-17T08:23:25.367Z,145
2017-10-17T08:24:35.777Z,145
2017-10-17T08:25:46.190Z,145
2017-10-17T08:26:56.590Z,145
2017-10-17T08:28:07.006Z,155
2017-10-17T08:29:17.440Z,150
2017-10-17T08:30:27.848Z,155
2017-10-17T08:31:37.935Z,155
2017-10-17T08:32:48.435Z,160
2017-10-17T08:33:58.509Z,165
2017-10-17T08:35:08.579Z,160
2017-10-17T08:36:18.659Z,150
2017-10-17T08:37:29.073Z,150
2017-10-17T08:38:39.477Z,145
2017-10-17T08:39:49.889Z,145
2017-10-17T08:41:00.315Z,145
2017-10-17T08:42:10.782Z,150
2017-10-17T08:43:20.876Z,145
2017-10-17T08:44:31.002Z,145
2017-10-17T08:45:41.476Z,145
2017-10-17T08:46:51.906Z,145
2017-10-17T08:48:02.305Z,150
2017-10-17T08:49:12.401Z,155
2017-10-17T08:50:22.542Z,160
2017-10-17T08:51:32.944Z,170
2017-10-17T08:52:43.368Z,160
2017-10-17T08:53:53.473Z,155
2017-10-17T08:55:03.582Z,150
2017-10-17T08:56:14.034Z,165
2017-10-17T08:57:24.132Z,150
2017-10-17T08:58:34.546Z,145
2017-10-17T08:59:44.981Z,150
2017-10-17T09:00:55.400Z,150
2017-10-17T09:02:05.862Z,145
2017-10-17T09:03:15.943Z,145
2017-10-17T09:04:26.062Z,145
2017-10-17T09:05:36.476Z,145
2017-10-17T09:06:46.951Z,145
2017-10-17T09:07:57.351Z,145
2017-10-17T09:09:07.780Z,150
2017-10-17T09:10:18.197Z,155
2017-10-17T09:11:28.613Z,160
2017-10-17T09:12:39.028Z,160
2017-10-17T09:13:49.169Z,155
2017-10-17T09:14:59.583Z,170
2017-10-17T09:16:09.686Z,160
2017-10-17T09:17:20.139Z,185
2017-10-17T09:18:30.535Z,185
2017-10-17T09:19:40.692Z,175
2017-10-17T09:20:51.084Z,175
2017-10-17T09:22:01.157Z,190
2017-10-17T09:23:11.675Z,195
2017-10-17T09:24:22.196Z,175
2017-10-17T09:25:32.677Z,150
2017-10-17T09:26:42.751Z,170
2017-10-17T09:27:53.165Z,160
2017-10-17T09:29:02.912Z,175
2017-10-17T09:30:13.006Z,180
2017-10-17T09:31:23.459Z,195
2017-10-17T09:32:33.545Z,190
2017-10-17T09:33:43.618Z,200
2017-10-17T09:34:54.051Z,195
2017-10-17T09:36:04.138Z,195
2017-10-17T09:37:14.619Z,200
2017-10-17T09:38:25.032Z,205
2017-10-17T09:39:35.444Z,200
2017-10-17T09:40:46.256Z,195
2017-10-17T09:41:56.357Z,200
2017-10-17T09:43:06.880Z,200
2017-10-17T09:44:17.328Z,205
2017-10-17T09:45:27.415Z,200
2017-10-17T09:46:37.491Z,195
2017-10-17T09:47:47.929Z,205
2017-10-17T09:48:58.396Z,200
2017-10-17T09:50:08.817Z,200
2017-10-17T09:51:19.236Z,200
2017-10-17T09:52:29.692Z,200
2017-10-17T09:53:40.098Z,190
2017-10-17T09:54:50.556Z,200
2017-10-17T09:56:00.983Z,200
2017-10-17T09:57:11.394Z,200
2017-10-17T09:58:21.496Z,200
2017-10-17T09:59:31.927Z,205
2017-10-17T10:00:42.403Z,200
2017-10-17T10:01:52.824Z,205
2017-10-17T10:03:02.933Z,205
2017-10-17T10:04:13.384Z,205
2017-10-17T10:05:23.473Z,205
2017-10-17T10:06:33.613Z,205
2017-10-17T10:07:44.021Z,205
2017-10-17T10:08:54.451Z,205
2017-10-17T10:10:04.862Z,210
2017-10-17T10:11:15.294Z,205
2017-10-17T10:12:25.710Z,205
2017-10-17T10:13:36.147Z,205
2017-10-17T10:14:46.566Z,190
2017-10-17T10:15:56.691Z,205
2017-10-17T10:17:07.113Z,205
2017-10-17T10:18:17.584Z,205
2017-10-17T10:19:27.996Z,205
2017-10-17T10:20:38.090Z,210
2017-10-17T10:21:48.535Z,200
2017-10-17T10:22:58.993Z,215
2017-10-17T10:24:09.427Z,210
2017-10-17T10:25:19.841Z,215
2017-10-17T10:26:29.935Z,210
2017-10-17T10:27:40.345Z,205
2017-10-17T10:28:50.758Z,215
2017-10-17T10:30:00.851Z,205
2017-10-17T10:31:11.280Z,215
2017-10-17T10:32:21.672Z,210
2017-10-17T10:33:32.086Z,215
2017-10-17T10:34:42.499Z,210
2017-10-17T10:35:52.927Z,210
2017-10-17T10:37:03.388Z,210
2017-10-17T10:38:13.486Z,220
2017-10-17T10:39:23.568Z,215
2017-10-17T10:40:33.999Z,210
2017-10-17T10:41:44.426Z,225
2017-10-17T10:42:54.819Z,230
2017-10-17T10:44:05.236Z,220
2017-10-17T10:45:15.325Z,235
2017-10-17T10:46:25.086Z,235
2017-10-17T10:47:35.496Z,245
2017-10-17T10:48:45.631Z,230
2017-10-17T10:49:55.701Z,215
2017-10-17T10:51:05.781Z,210
2017-10-17T10:52:16.197Z,180
2017-10-17T10:53:26.594Z,170
2017-10-17T10:54:37.052Z,145
2017-10-17T10:55:47.468Z,125
2017-10-17T10:56:57.536Z,140
2017-10-17T10:58:07.308Z,140
2017-10-17T10:59:17.728Z,165
2017-10-17T11:00:28.202Z,150
2017-10-17T11:01:38.633Z,160
2017-10-17T11:02:48.728Z,235
2017-10-17T11:03:58.793Z,230
2017-10-17T11:05:09.196Z,225
2017-10-17T11:06:19.672Z,220
2017-10-17T11:07:30.082Z,220
2017-10-17T11:08:40.502Z,205
2017-10-17T11:09:50.600Z,205
2017-10-17T11:11:01.017Z,200
2017-10-17T11:12:11.422Z,200
2017-10-17T11:13:21.827Z,195
2017-10-17T11:14:31.908Z,195
2017-10-17T11:15:41.981Z,205
2017-10-17T11:16:52.396Z,205
2017-10-17T11:18:02.540Z,205
2017-10-17T11:19:12.963Z,205
2017-10-17T11:20:23.362Z,205
2017-10-17T11:21:33.460Z,205
2017-10-17T11:22:43.883Z,205
2017-10-17T11:23:54.342Z,205
2017-10-17T11:25:04.761Z,205
2017-10-17T11:26:15.176Z,205
2017-10-17T11:27:25.590Z,205
2017-10-17T11:28:36.032Z,205
2017-10-17T11:29:45.836Z,205
2017-10-17T11:30:56.247Z,205
2017-10-17T11:32:06.358Z,200
2017-10-17T11:33:16.773Z,200
2017-10-17T11:34:27.203Z,200
2017-10-17T11:35:37.675Z,205
2017-10-17T11:36:48.081Z,205
2017-10-17T11:37:58.539Z,205
2017-10-17T11:39:08.967Z,205
2017-10-17T11:40:19.080Z,205
2017-10-17T11:41:29.223Z,205
2017-10-17T11:42:39.644Z,205
2017-10-17T11:43:50.078Z,205
2017-10-17T11:45:00.538Z,205
2017-10-17T11:46:10.952Z,205
2017-10-17T11:47:21.375Z,205
2017-10-17T11:48:31.788Z,205
2017-10-17T11:49:41.881Z,205
2017-10-17T11:50:52.336Z,205
2017-10-17T11:52:02.754Z,205
2017-10-17T11:53:13.255Z,205
2017-10-17T11:54:23.696Z,210
2017-10-17T11:55:34.118Z,210
2017-10-17T11:56:44.194Z,210
2017-10-17T11:57:54.291Z,210
2017-10-17T11:59:04.750Z,215
2017-10-17T12:00:15.180Z,210
2017-10-17T12:01:25.577Z,210
2017-10-17T12:02:36.014Z,210
2017-10-17T12:03:46.086Z,210
2017-10-17T12:04:56.513Z,205
2017-10-17T12:06:06.949Z,205
2017-10-17T12:07:17.380Z,205
2017-10-17T12:08:27.781Z,205
2017-10-17T12:09:37.890Z,205
2017-10-17T12:10:48.350Z,205
2017-10-17T12:11:58.442Z,205
2017-10-17T12:13:08.851Z,205
2017-10-17T12:14:19.286Z,205
2017-10-17T12:15:29.711Z,205
2017-10-17T12:16:39.848Z,210
2017-10-17T12:17:50.262Z,210
2017-10-17T12:19:00.674Z,210
2017-10-17T12:20:11.150Z,210
2017-10-17T12:21:21.604Z,210
2017-10-17T12:22:32.083Z,205
2017-10-17T12:23:42.514Z,205
2017-10-17T12:24:52.938Z,205
2017-10-17T12:26:03.363Z,205
2017-10-17T12:27:13.776Z,205
2017-10-17T12:28:23.583Z,200
2017-10-17T12:29:33.672Z,200
2017-10-17T12:30:44.090Z,200
2017-10-17T12:31:54.174Z,200
2017-10-17T12:33:04.592Z,200
2017-10-17T12:34:14.737Z,195
2017-10-17T12:35:24.825Z,195
2017-10-17T12:36:35.244Z,195
2017-10-17T12:37:45.673Z,195
2017-10-17T12:38:56.109Z,190
2017-10-17T12:40:06.542Z,190
2017-10-17T12:41:16.953Z,190
2017-10-17T12:42:27.035Z,190
2017-10-17T12:43:37.449Z,185
2017-10-17T12:44:47.202Z,185
2017-10-17T12:45:57.674Z,185
2017-10-17T12:47:08.110Z,185
2017-10-17T12:48:18.545Z,185
2017-10-17T12:49:28.954Z,180
2017-10-17T12:50:39.363Z,180
2017-10-17T12:51:49.470Z,180
2017-10-17T12:52:59.879Z,185
2017-10-17T12:54:10.288Z,180
2017-10-17T12:55:20.725Z,180
2017-10-17T12:56:31.145Z,180
2017-10-17T12:57:41.607Z,180
2017-10-17T12:58:52.035Z,180
2017-10-17T13:00:02.683Z,175
2017-10-17T13:01:13.118Z,175
2017-10-17T13:02:23.199Z,175
2017-10-17T13:03:33.673Z,175
2017-10-17T13:04:45.004Z,170
2017-10-17T13:05:55.414Z,175
2017-10-17T13:07:05.822Z,175
2017-10-17T13:08:15.908Z,175
2017-10-17T13:09:26.316Z,170
2017-10-17T13:10:36.731Z,170
2017-10-17T13:11:46.503Z,170
2017-10-17T13:12:56.595Z,170
2017-10-17T13:14:07.038Z,170
2017-10-17T13:15:17.477Z,170
2017-10-17T13:16:27.897Z,170
2017-10-17T13:17:38.309Z,165
2017-10-17T13:18:48.744Z,165
2017-10-17T13:19:58.502Z,165
2017-10-17T13:21:08.937Z,165
2017-10-17T13:22:19.344Z,165
2017-10-17T13:23:29.769Z,165
2017-10-17T13:24:39.854Z,165
2017-10-17T13:25:49.991Z,160
2017-10-17T13:27:00.771Z,160
2017-10-17T13:28:11.224Z,160
2017-10-17T13:29:21.669Z,160
2017-10-17T13:30:32.084Z,160
2017-10-17T13:31:42.522Z,165
2017-10-17T13:32:52.949Z,160
2017-10-17T13:34:03.393Z,155
2017-10-17T13:35:13.151Z,160
2017-10-17T13:36:23.615Z,160
2017-10-17T13:37:34.027Z,160
2017-10-17T13:38:44.157Z,155
2017-10-17T13:39:54.606Z,155
2017-10-17T13:41:05.041Z,150
2017-10-17T13:42:15.467Z,150
2017-10-17T13:43:27.849Z,150
2017-10-17T13:44:38.278Z,145
2017-10-17T13:45:48.385Z,135
2017-10-17T13:46:58.820Z,140
2017-10-17T13:48:09.254Z,135
2017-10-17T13:49:19.664Z,140
2017-10-17T13:50:30.127Z,135
2017-10-17T13:51:40.564Z,135
2017-10-17T13:52:50.661Z,150
2017-10-17T13:54:00.783Z,145
2017-10-17T13:55:11.218Z,145
2017-10-17T13:56:21.698Z,140
2017-10-17T13:57:32.140Z,140
2017-10-17T13:58:42.565Z,140
2017-10-17T13:59:52.997Z,140
2017-10-17T14:01:03.422Z,145
2017-10-17T14:02:13.531Z,145
2017-10-17T14:03:23.967Z,140
2017-10-17T14:04:34.402Z,140
2017-10-17T14:05:44.828Z,140
2017-10-17T14:06:54.927Z,135
2017-10-17T14:08:05.428Z,120
2017-10-17T14:09:15.515Z,115
2017-10-17T14:10:25.949Z,115
2017-10-17T14:11:36.377Z,115
2017-10-17T14:12:48.540Z,125
2017-10-17T14:13:59.009Z,125
2017-10-17T14:15:09.446Z,115
2017-10-17T14:16:19.873Z,115
2017-10-17T14:17:30.362Z,125
2017-10-17T14:18:40.452Z,120
2017-10-17T14:19:50.615Z,120
2017-10-17T14:21:01.043Z,110
2017-10-17T14:22:11.462Z,110
2017-10-17T14:23:21.569Z,110
2017-10-17T14:24:31.983Z,115
2017-10-17T14:25:42.504Z,110
2017-10-17T14:26:52.914Z,105
2017-10-17T14:28:03.343Z,110
2017-10-17T14:29:13.431Z,110
2017-10-17T14:30:23.862Z,110
2017-10-17T14:31:34.015Z,105
2017-10-17T14:32:44.426Z,105
2017-10-17T14:33:54.859Z,100
2017-10-17T14:35:04.970Z,100
2017-10-17T14:36:15.410Z,100
2017-10-17T14:37:25.931Z,100
2017-10-17T14:38:36.359Z,100
2017-10-17T14:39:46.444Z,95
2017-10-17T14:40:56.887Z,95
2017-10-17T14:42:07.324Z,95
2017-10-17T14:43:17.754Z,80
2017-10-17T14:44:28.179Z,85
2017-10-17T14:45:38.615Z,75
2017-10-17T14:46:49.030Z,75
2017-10-17T14:47:59.114Z,65
2017-10-17T14:49:08.867Z,70
2017-10-17T14:50:18.952Z,70
2017-10-17T14:51:29.058Z,85
2017-10-17T14:52:39.137Z,85
2017-10-17T14:53:49.572Z,85
2017-10-17T14:54:59.661Z,80
2017-10-17T14:56:10.077Z,80
2017-10-17T14:57:19.844Z,80
2017-10-17T14:58:30.258Z,75
2017-10-17T14:59:40.693Z,75
2017-10-17T15:00:50.840Z,70
2017-10-17T15:02:01.251Z,65
2017-10-17T15:03:11.351Z,55
2017-10-17T15:04:21.464Z,55
2017-10-17T15:05:31.871Z,55
2017-10-17T15:06:42.316Z,55
2017-10-17T15:07:52.423Z,50
2017-10-17T15:09:02.833Z,50
2017-10-17T15:10:13.251Z,50
2017-10-17T15:11:23.718Z,45
2017-10-17T15:12:34.136Z,45
2017-10-17T15:13:44.570Z,45
2017-10-17T15:14:54.670Z,40
2017-10-17T15:16:04.792Z,35
2017-10-17T15:17:15.273Z,35
2017-10-17T15:18:25.691Z,35
2017-10-17T15:19:35.791Z,30
2017-10-17T15:20:46.226Z,30
2017-10-17T15:21:56.640Z,30
2017-10-17T15:23:07.092Z,30
2017-10-17T15:24:17.189Z,25
2017-10-17T15:25:27.616Z,25
2017-10-17T15:26:38.037Z,25
2017-10-17T15:27:48.479Z,25
2017-10-17T15:28:58.916Z,20
2017-10-17T15:30:09.338Z,20
2017-10-17T15:31:19.749Z,20
2017-10-17T15:32:30.195Z,20
2017-10-17T15:33:40.321Z,20
2017-10-17T15:34:50.790Z,20
2017-10-17T15:36:01.215Z,15
2017-10-17T15:37:11.634Z,15
2017-10-17T15:38:21.692Z,15
2017-10-17T15:39:32.125Z,15
2017-10-17T15:40:42.559Z,15
2017-10-17T15:41:52.998Z,15
2017-10-17T15:43:03.423Z,10
2017-10-17T15:44:13.505Z,10
2017-10-17T15:45:23.612Z,10
2017-10-17T15:46:34.107Z,10
2017-10-17T15:47:44.547Z,10
2017-10-17T15:48:54.957Z,10
2017-10-17T15:50:05.372Z,5
2017-10-17T15:51:15.807Z,5
2017-10-17T15:52:26.311Z,5
2017-10-17T15:53:36.391Z,5
2017-10-17T15:54:46.848Z,5
2017-10-17T15:55:56.951Z,5
2017-10-17T15:57:06.696Z,5
2017-10-17T15:58:17.104Z,5
2017-10-17T15:59:26.871Z,0
2017-10-17T16:00:37.315Z,0
2017-10-17T16:01:47.413Z,0
2017-10-17T16:02:57.819Z,0
2017-10-17T16:04:08.260Z,0
2017-10-17T16:05:18.693Z,0
2017-10-17T16:06:28.810Z,0
2017-10-17T16:07:39.216Z,0
2017-10-17T16:08:49.319Z,0
2017-10-17T16:09:59.743Z,0
2017-10-17T16:11:10.161Z,0
2017-10-17T16:12:20.577Z,0
2017-10-17T16:13:31.008Z,0
2017-10-17T16:14:41.114Z,0
2017-10-17T16:15:51.620Z,0
2017-10-17T16:17:02.061Z,0
2017-10-17T16:18:12.501Z,0
2017-10-17T16:19:22.944Z,0
2017-10-17T16:20:32.715Z,0
2017-10-17T16:21:42.526Z,0
2017-10-17T16:22:52.629Z,0
2017-10-17T16:24:03.046Z,0
2017-10-17T16:25:13.482Z,0
2017-10-17T16:26:23.905Z,0
2017-10-17T16:27:33.721Z,0
2017-10-17T16:28:43.820Z,0
2017-10-17T16:29:53.927Z,0
2017-10-17T16:31:04.336Z,0
2017-10-17T16:32:14.763Z,0
2017-10-17T16:33:25.237Z,0
2017-10-17T16:34:35.657Z,0
2017-10-17T16:35:46.101Z,0
2017-10-17T16:36:56.517Z,0
2017-10-17T16:38:06.626Z,0
2017-10-17T16:39:16.778Z,0
2017-10-17T16:40:27.202Z,0
2017-10-17T16:41:37.302Z,0
2017-10-17T16:42:47.718Z,0
2017-10-17T16:43:58.155Z,0
2017-10-17T16:45:08.641Z,0
2017-10-17T16:46:19.366Z,0
2017-10-17T16:47:29.866Z,0
2017-10-17T16:48:40.288Z,0
2017-10-17T16:49:50.754Z,0
2017-10-17T16:51:00.933Z,0
2017-10-17T16:52:11.031Z,0
2017-10-17T16:53:21.452Z,0
2017-10-17T16:54:31.893Z,0
2017-10-17T16:55:42.347Z,0
2017-10-17T16:56:52.497Z,0
2017-10-17T16:58:02.919Z,0
2017-10-17T16:59:13.336Z,0
2017-10-17T17:00:23.757Z,0
2017-10-17T17:01:34.177Z,0
2017-10-17T17:02:44.653Z,0
2017-10-17T17:03:55.083Z,0
2017-10-17T17:05:05.524Z,0
2017-10-17T17:06:15.974Z,0
2017-10-17T17:07:26.416Z,0
2017-10-17T17:08:37.392Z,0
2017-10-17T17:09:47.844Z,0
2017-10-17T17:10:58.289Z,0